sensor_id;sensor_type;location;lat;lon;timestamp;P1;durP1;ratioP1;P2;durP2;ratioP2
64543;SDS011;50936;51.660;5.616;2023-05-07T00:00:40;11.75;;;7.55;;
64543;SDS011;50936;51.660;5.616;2023-05-07T00:03:08;12.18;;;7.72;;
64543;SDS011;50936;51.660;5.616;2023-05-07T00:05:35;11.93;;;8.20;;
64543;SDS011;50936;51.660;5.616;2023-05-07T00:08:03;11.43;;;8.02;;
64543;SDS011;50936;51.660;5.616;2023-05-07T00:10:30;10.82;;;8.20;;
64543;SDS011;50936;51.660;5.616;2023-05-07T00:12:57;11.70;;;7.70;;
64543;SDS011;50936;51.660;5.616;2023-05-07T00:15:24;11.40;;;8.02;;
64543;SDS011;50936;51.660;5.616;2023-05-07T00:17:51;13.02;;;7.60;;
64543;SDS011;50936;51.660;5.616;2023-05-07T00:20:18;13.45;;;8.10;;
64543;SDS011;50936;51.660;5.616;2023-05-07T00:22:45;11.10;;;8.43;;
64543;SDS011;50936;51.660;5.616;2023-05-07T00:25:12;11.30;;;7.97;;
64543;SDS011;50936;51.660;5.616;2023-05-07T00:27:38;11.98;;;8.00;;
64543;SDS011;50936;51.660;5.616;2023-05-07T00:30:05;11.55;;;8.35;;
64543;SDS011;50936;51.660;5.616;2023-05-07T00:32:35;12.15;;;7.93;;
64543;SDS011;50936;51.660;5.616;2023-05-07T00:35:03;12.63;;;8.52;;
64543;SDS011;50936;51.660;5.616;2023-05-07T00:37:31;14.15;;;8.02;;
64543;SDS011;50936;51.660;5.616;2023-05-07T00:39:58;12.38;;;8.75;;
64543;SDS011;50936;51.660;5.616;2023-05-07T00:42:25;12.45;;;8.43;;
64543;SDS011;50936;51.660;5.616;2023-05-07T00:44:52;13.73;;;8.07;;
64543;SDS011;50936;51.660;5.616;2023-05-07T00:47:19;11.98;;;7.88;;
64543;SDS011;50936;51.660;5.616;2023-05-07T00:49:46;15.25;;;8.52;;
64543;SDS011;50936;51.660;5.616;2023-05-07T00:52:14;14.77;;;8.48;;
64543;SDS011;50936;51.660;5.616;2023-05-07T00:54:43;12.98;;;7.95;;
64543;SDS011;50936;51.660;5.616;2023-05-07T00:57:11;14.45;;;8.95;;
64543;SDS011;50936;51.660;5.616;2023-05-07T00:59:38;12.95;;;8.50;;
64543;SDS011;50936;51.660;5.616;2023-05-07T01:02:07;12.68;;;7.90;;
64543;SDS011;50936;51.660;5.616;2023-05-07T01:04:34;13.02;;;9.10;;
64543;SDS011;50936;51.660;5.616;2023-05-07T01:07:01;12.82;;;8.90;;
64543;SDS011;50936;51.660;5.616;2023-05-07T01:09:29;15.13;;;10.02;;
64543;SDS011;50936;51.660;5.616;2023-05-07T01:11:57;13.95;;;9.52;;
64543;SDS011;50936;51.660;5.616;2023-05-07T01:14:25;17.92;;;9.98;;
64543;SDS011;50936;51.660;5.616;2023-05-07T01:16:53;14.10;;;9.73;;
64543;SDS011;50936;51.660;5.616;2023-05-07T01:19:22;14.63;;;10.38;;
64543;SDS011;50936;51.660;5.616;2023-05-07T01:21:49;15.23;;;10.73;;
64543;SDS011;50936;51.660;5.616;2023-05-07T01:24:23;13.98;;;9.93;;
64543;SDS011;50936;51.660;5.616;2023-05-07T01:26:50;14.80;;;10.45;;
64543;SDS011;50936;51.660;5.616;2023-05-07T01:29:18;16.40;;;11.00;;
64543;SDS011;50936;51.660;5.616;2023-05-07T01:31:46;18.52;;;11.07;;
64543;SDS011;50936;51.660;5.616;2023-05-07T01:34:15;18.15;;;11.07;;
64543;SDS011;50936;51.660;5.616;2023-05-07T01:36:46;20.15;;;12.02;;
64543;SDS011;50936;51.660;5.616;2023-05-07T01:39:14;16.70;;;11.80;;
64543;SDS011;50936;51.660;5.616;2023-05-07T01:41:42;17.40;;;11.70;;
64543;SDS011;50936;51.660;5.616;2023-05-07T01:44:10;19.58;;;12.02;;
64543;SDS011;50936;51.660;5.616;2023-05-07T01:46:40;20.17;;;13.85;;
64543;SDS011;50936;51.660;5.616;2023-05-07T01:49:08;20.13;;;13.00;;
64543;SDS011;50936;51.660;5.616;2023-05-07T01:51:35;21.38;;;12.63;;
64543;SDS011;50936;51.660;5.616;2023-05-07T01:54:02;20.20;;;12.82;;
64543;SDS011;50936;51.660;5.616;2023-05-07T01:56:30;18.92;;;13.63;;
64543;SDS011;50936;51.660;5.616;2023-05-07T01:58:58;19.17;;;13.13;;
64543;SDS011;50936;51.660;5.616;2023-05-07T02:01:24;20.98;;;13.65;;
64543;SDS011;50936;51.660;5.616;2023-05-07T02:03:52;19.92;;;14.13;;
64543;SDS011;50936;51.660;5.616;2023-05-07T02:06:24;19.15;;;13.85;;
64543;SDS011;50936;51.660;5.616;2023-05-07T02:08:55;23.83;;;14.82;;
64543;SDS011;50936;51.660;5.616;2023-05-07T02:11:22;23.73;;;14.45;;
64543;SDS011;50936;51.660;5.616;2023-05-07T02:13:49;23.75;;;15.18;;
64543;SDS011;50936;51.660;5.616;2023-05-07T02:16:16;20.98;;;14.57;;
64543;SDS011;50936;51.660;5.616;2023-05-07T02:18:43;24.70;;;15.52;;
64543;SDS011;50936;51.660;5.616;2023-05-07T02:21:09;24.30;;;15.20;;
64543;SDS011;50936;51.660;5.616;2023-05-07T02:23:36;24.83;;;14.95;;
64543;SDS011;50936;51.660;5.616;2023-05-07T02:26:04;22.77;;;15.00;;
64543;SDS011;50936;51.660;5.616;2023-05-07T02:28:31;23.33;;;15.60;;
64543;SDS011;50936;51.660;5.616;2023-05-07T02:31:04;22.65;;;15.18;;
64543;SDS011;50936;51.660;5.616;2023-05-07T02:33:31;23.73;;;16.02;;
64543;SDS011;50936;51.660;5.616;2023-05-07T02:36:05;25.85;;;16.08;;
64543;SDS011;50936;51.660;5.616;2023-05-07T02:38:45;27.38;;;16.40;;
64543;SDS011;50936;51.660;5.616;2023-05-07T02:41:12;25.73;;;17.05;;
64543;SDS011;50936;51.660;5.616;2023-05-07T02:43:39;27.35;;;16.83;;
64543;SDS011;50936;51.660;5.616;2023-05-07T02:46:07;24.65;;;16.95;;
64543;SDS011;50936;51.660;5.616;2023-05-07T02:48:39;23.42;;;17.13;;
64543;SDS011;50936;51.660;5.616;2023-05-07T02:51:06;25.60;;;16.20;;
64543;SDS011;50936;51.660;5.616;2023-05-07T02:53:34;24.08;;;16.42;;
64543;SDS011;50936;51.660;5.616;2023-05-07T02:56:02;26.95;;;16.65;;
64543;SDS011;50936;51.660;5.616;2023-05-07T02:58:29;26.20;;;17.02;;
64543;SDS011;50936;51.660;5.616;2023-05-07T03:00:57;29.50;;;17.90;;
64543;SDS011;50936;51.660;5.616;2023-05-07T03:03:33;28.13;;;18.45;;
64543;SDS011;50936;51.660;5.616;2023-05-07T03:06:01;28.55;;;17.85;;
64543;SDS011;50936;51.660;5.616;2023-05-07T03:08:28;25.40;;;17.73;;
64543;SDS011;50936;51.660;5.616;2023-05-07T03:10:55;28.25;;;19.02;;
64543;SDS011;50936;51.660;5.616;2023-05-07T03:13:23;27.67;;;18.30;;
64543;SDS011;50936;51.660;5.616;2023-05-07T03:15:51;33.05;;;18.63;;
64543;SDS011;50936;51.660;5.616;2023-05-07T03:18:18;29.70;;;19.20;;
64543;SDS011;50936;51.660;5.616;2023-05-07T03:20:45;29.52;;;18.17;;
64543;SDS011;50936;51.660;5.616;2023-05-07T03:23:12;31.35;;;19.58;;
64543;SDS011;50936;51.660;5.616;2023-05-07T03:25:39;31.08;;;18.65;;
64543;SDS011;50936;51.660;5.616;2023-05-07T03:28:06;30.05;;;19.35;;
64543;SDS011;50936;51.660;5.616;2023-05-07T03:30:48;28.33;;;18.40;;
64543;SDS011;50936;51.660;5.616;2023-05-07T03:33:15;32.70;;;19.67;;
64543;SDS011;50936;51.660;5.616;2023-05-07T03:35:42;29.23;;;19.70;;
64543;SDS011;50936;51.660;5.616;2023-05-07T03:38:09;32.70;;;20.08;;
64543;SDS011;50936;51.660;5.616;2023-05-07T03:40:37;30.33;;;20.27;;
64543;SDS011;50936;51.660;5.616;2023-05-07T03:43:04;31.52;;;19.75;;
64543;SDS011;50936;51.660;5.616;2023-05-07T03:45:35;27.73;;;19.23;;
64543;SDS011;50936;51.660;5.616;2023-05-07T03:48:12;32.58;;;19.85;;
64543;SDS011;50936;51.660;5.616;2023-05-07T03:50:39;31.42;;;20.83;;
64543;SDS011;50936;51.660;5.616;2023-05-07T03:53:06;33.22;;;21.13;;
64543;SDS011;50936;51.660;5.616;2023-05-07T03:55:37;35.28;;;20.95;;
64543;SDS011;50936;51.660;5.616;2023-05-07T03:58:05;33.35;;;21.50;;
64543;SDS011;50936;51.660;5.616;2023-05-07T04:00:32;34.65;;;22.40;;
64543;SDS011;50936;51.660;5.616;2023-05-07T04:03:12;32.42;;;21.40;;
64543;SDS011;50936;51.660;5.616;2023-05-07T04:05:39;38.38;;;21.80;;
64543;SDS011;50936;51.660;5.616;2023-05-07T04:08:06;35.78;;;22.63;;
64543;SDS011;50936;51.660;5.616;2023-05-07T04:10:46;35.72;;;22.85;;
64543;SDS011;50936;51.660;5.616;2023-05-07T04:13:13;41.55;;;22.20;;
64543;SDS011;50936;51.660;5.616;2023-05-07T04:15:41;35.53;;;22.15;;
64543;SDS011;50936;51.660;5.616;2023-05-07T04:18:10;34.42;;;22.55;;
64543;SDS011;50936;51.660;5.616;2023-05-07T04:20:38;38.63;;;24.88;;
64543;SDS011;50936;51.660;5.616;2023-05-07T04:23:09;38.40;;;24.27;;
64543;SDS011;50936;51.660;5.616;2023-05-07T04:25:37;36.95;;;23.45;;
64543;SDS011;50936;51.660;5.616;2023-05-07T04:28:11;36.72;;;23.05;;
64543;SDS011;50936;51.660;5.616;2023-05-07T04:30:39;37.53;;;23.40;;
64543;SDS011;50936;51.660;5.616;2023-05-07T04:33:08;43.17;;;24.13;;
64543;SDS011;50936;51.660;5.616;2023-05-07T04:35:36;40.10;;;23.75;;
64543;SDS011;50936;51.660;5.616;2023-05-07T04:38:04;38.72;;;23.83;;
64543;SDS011;50936;51.660;5.616;2023-05-07T04:40:31;36.20;;;21.85;;
64543;SDS011;50936;51.660;5.616;2023-05-07T04:43:00;40.22;;;25.33;;
64543;SDS011;50936;51.660;5.616;2023-05-07T04:45:31;39.50;;;24.75;;
64543;SDS011;50936;51.660;5.616;2023-05-07T04:47:58;39.03;;;25.20;;
64543;SDS011;50936;51.660;5.616;2023-05-07T04:50:25;40.80;;;24.98;;
64543;SDS011;50936;51.660;5.616;2023-05-07T04:52:57;37.55;;;24.58;;
64543;SDS011;50936;51.660;5.616;2023-05-07T04:55:24;41.03;;;25.25;;
64543;SDS011;50936;51.660;5.616;2023-05-07T04:57:51;40.00;;;25.42;;
64543;SDS011;50936;51.660;5.616;2023-05-07T05:00:19;42.50;;;25.58;;
64543;SDS011;50936;51.660;5.616;2023-05-07T05:02:48;38.53;;;25.60;;
64543;SDS011;50936;51.660;5.616;2023-05-07T05:05:18;38.70;;;24.42;;
64543;SDS011;50936;51.660;5.616;2023-05-07T05:07:48;39.65;;;24.67;;
64543;SDS011;50936;51.660;5.616;2023-05-07T05:10:15;40.42;;;25.75;;
64543;SDS011;50936;51.660;5.616;2023-05-07T05:12:43;36.90;;;24.95;;
64543;SDS011;50936;51.660;5.616;2023-05-07T05:15:11;41.28;;;25.88;;
64543;SDS011;50936;51.660;5.616;2023-05-07T05:17:39;40.97;;;24.95;;
64543;SDS011;50936;51.660;5.616;2023-05-07T05:20:07;38.72;;;25.95;;
64543;SDS011;50936;51.660;5.616;2023-05-07T05:22:37;39.17;;;23.27;;
64543;SDS011;50936;51.660;5.616;2023-05-07T05:25:05;38.15;;;24.15;;
64543;SDS011;50936;51.660;5.616;2023-05-07T05:27:32;41.58;;;24.35;;
64543;SDS011;50936;51.660;5.616;2023-05-07T05:30:00;37.53;;;24.35;;
64543;SDS011;50936;51.660;5.616;2023-05-07T05:32:30;39.08;;;23.58;;
64543;SDS011;50936;51.660;5.616;2023-05-07T05:34:57;38.33;;;23.25;;
64543;SDS011;50936;51.660;5.616;2023-05-07T05:37:24;40.72;;;23.23;;
64543;SDS011;50936;51.660;5.616;2023-05-07T05:39:52;38.42;;;23.38;;
64543;SDS011;50936;51.660;5.616;2023-05-07T05:42:21;40.15;;;23.73;;
64543;SDS011;50936;51.660;5.616;2023-05-07T05:44:48;40.67;;;24.63;;
64543;SDS011;50936;51.660;5.616;2023-05-07T05:47:15;36.88;;;24.90;;
64543;SDS011;50936;51.660;5.616;2023-05-07T05:49:43;37.30;;;22.67;;
64543;SDS011;50936;51.660;5.616;2023-05-07T05:52:14;35.90;;;23.05;;
64543;SDS011;50936;51.660;5.616;2023-05-07T05:54:41;36.03;;;22.92;;
64543;SDS011;50936;51.660;5.616;2023-05-07T05:57:07;36.70;;;23.80;;
64543;SDS011;50936;51.660;5.616;2023-05-07T05:59:35;36.75;;;22.20;;
64543;SDS011;50936;51.660;5.616;2023-05-07T06:02:02;34.75;;;20.77;;
64543;SDS011;50936;51.660;5.616;2023-05-07T06:04:29;34.78;;;22.13;;
64543;SDS011;50936;51.660;5.616;2023-05-07T06:06:57;35.42;;;21.75;;
64543;SDS011;50936;51.660;5.616;2023-05-07T06:09:25;34.00;;;21.88;;
64543;SDS011;50936;51.660;5.616;2023-05-07T06:11:52;33.05;;;22.45;;
64543;SDS011;50936;51.660;5.616;2023-05-07T06:14:19;35.33;;;22.73;;
64543;SDS011;50936;51.660;5.616;2023-05-07T06:16:46;33.72;;;21.85;;
64543;SDS011;50936;51.660;5.616;2023-05-07T06:19:13;35.97;;;21.58;;
64543;SDS011;50936;51.660;5.616;2023-05-07T06:21:41;32.15;;;20.90;;
64543;SDS011;50936;51.660;5.616;2023-05-07T06:24:08;36.03;;;22.50;;
64543;SDS011;50936;51.660;5.616;2023-05-07T06:26:36;33.38;;;22.67;;
64543;SDS011;50936;51.660;5.616;2023-05-07T06:29:03;36.15;;;23.15;;
64543;SDS011;50936;51.660;5.616;2023-05-07T06:31:30;35.95;;;22.65;;
64543;SDS011;50936;51.660;5.616;2023-05-07T06:34:02;34.58;;;21.00;;
64543;SDS011;50936;51.660;5.616;2023-05-07T06:36:34;32.88;;;21.65;;
64543;SDS011;50936;51.660;5.616;2023-05-07T06:39:10;33.30;;;21.05;;
64543;SDS011;50936;51.660;5.616;2023-05-07T06:41:36;33.40;;;20.77;;
64543;SDS011;50936;51.660;5.616;2023-05-07T06:44:08;30.58;;;20.17;;
64543;SDS011;50936;51.660;5.616;2023-05-07T06:46:50;31.63;;;20.60;;
64543;SDS011;50936;51.660;5.616;2023-05-07T06:49:16;35.78;;;20.73;;
64543;SDS011;50936;51.660;5.616;2023-05-07T06:51:44;28.83;;;19.67;;
64543;SDS011;50936;51.660;5.616;2023-05-07T06:54:11;30.92;;;18.98;;
64543;SDS011;50936;51.660;5.616;2023-05-07T06:56:40;26.58;;;18.35;;
64543;SDS011;50936;51.660;5.616;2023-05-07T06:59:09;27.15;;;18.02;;
64543;SDS011;50936;51.660;5.616;2023-05-07T07:01:38;29.33;;;17.98;;
64543;SDS011;50936;51.660;5.616;2023-05-07T07:04:06;26.50;;;17.27;;
64543;SDS011;50936;51.660;5.616;2023-05-07T07:06:34;27.73;;;18.20;;
64543;SDS011;50936;51.660;5.616;2023-05-07T07:09:05;26.75;;;17.00;;
64543;SDS011;50936;51.660;5.616;2023-05-07T07:11:32;29.52;;;19.38;;
64543;SDS011;50936;51.660;5.616;2023-05-07T07:13:59;28.40;;;18.05;;
64543;SDS011;50936;51.660;5.616;2023-05-07T07:16:28;27.50;;;18.33;;
64543;SDS011;50936;51.660;5.616;2023-05-07T07:18:55;28.83;;;17.35;;
64543;SDS011;50936;51.660;5.616;2023-05-07T07:21:22;26.60;;;18.38;;
64543;SDS011;50936;51.660;5.616;2023-05-07T07:23:49;25.95;;;17.83;;
64543;SDS011;50936;51.660;5.616;2023-05-07T07:26:18;26.55;;;17.80;;
64543;SDS011;50936;51.660;5.616;2023-05-07T07:28:45;25.75;;;17.63;;
64543;SDS011;50936;51.660;5.616;2023-05-07T07:31:16;28.05;;;17.67;;
64543;SDS011;50936;51.660;5.616;2023-05-07T07:33:43;25.48;;;17.33;;
64543;SDS011;50936;51.660;5.616;2023-05-07T07:36:10;26.55;;;17.35;;
64543;SDS011;50936;51.660;5.616;2023-05-07T07:38:38;27.80;;;18.88;;
64543;SDS011;50936;51.660;5.616;2023-05-07T07:41:07;27.02;;;16.42;;
64543;SDS011;50936;51.660;5.616;2023-05-07T07:43:35;26.77;;;18.63;;
64543;SDS011;50936;51.660;5.616;2023-05-07T07:46:03;26.38;;;17.88;;
64543;SDS011;50936;51.660;5.616;2023-05-07T07:48:31;26.55;;;18.50;;
64543;SDS011;50936;51.660;5.616;2023-05-07T07:50:58;27.52;;;17.90;;
64543;SDS011;50936;51.660;5.616;2023-05-07T07:53:26;24.67;;;17.75;;
64543;SDS011;50936;51.660;5.616;2023-05-07T07:55:56;22.33;;;16.42;;
64543;SDS011;50936;51.660;5.616;2023-05-07T07:58:27;22.77;;;15.80;;
64543;SDS011;50936;51.660;5.616;2023-05-07T08:00:54;22.45;;;15.25;;
64543;SDS011;50936;51.660;5.616;2023-05-07T08:03:23;20.35;;;15.07;;
64543;SDS011;50936;51.660;5.616;2023-05-07T08:05:54;22.15;;;14.18;;
64543;SDS011;50936;51.660;5.616;2023-05-07T08:08:22;23.60;;;16.00;;
64543;SDS011;50936;51.660;5.616;2023-05-07T08:10:49;22.35;;;15.05;;
64543;SDS011;50936;51.660;5.616;2023-05-07T08:13:27;21.50;;;14.52;;
64543;SDS011;50936;51.660;5.616;2023-05-07T08:15:54;23.63;;;14.90;;
64543;SDS011;50936;51.660;5.616;2023-05-07T08:18:21;21.65;;;14.30;;
64543;SDS011;50936;51.660;5.616;2023-05-07T08:20:52;23.45;;;14.32;;
64543;SDS011;50936;51.660;5.616;2023-05-07T08:23:24;20.77;;;13.88;;
64543;SDS011;50936;51.660;5.616;2023-05-07T08:25:52;21.38;;;13.65;;
64543;SDS011;50936;51.660;5.616;2023-05-07T08:28:19;21.30;;;13.38;;
64543;SDS011;50936;51.660;5.616;2023-05-07T08:30:48;22.95;;;14.57;;
64543;SDS011;50936;51.660;5.616;2023-05-07T08:33:15;21.65;;;14.32;;
64543;SDS011;50936;51.660;5.616;2023-05-07T08:35:42;21.58;;;14.50;;
64543;SDS011;50936;51.660;5.616;2023-05-07T08:38:11;19.15;;;13.98;;
64543;SDS011;50936;51.660;5.616;2023-05-07T08:40:38;22.48;;;15.07;;
64543;SDS011;50936;51.660;5.616;2023-05-07T08:43:13;19.63;;;13.07;;
64543;SDS011;50936;51.660;5.616;2023-05-07T08:45:42;19.88;;;14.82;;
64543;SDS011;50936;51.660;5.616;2023-05-07T08:50:47;20.10;;;13.27;;
64543;SDS011;50936;51.660;5.616;2023-05-07T08:53:14;17.92;;;12.15;;
64543;SDS011;50936;51.660;5.616;2023-05-07T08:55:44;14.52;;;10.90;;
64543;SDS011;50936;51.660;5.616;2023-05-07T08:58:13;16.13;;;11.07;;
64543;SDS011;50936;51.660;5.616;2023-05-07T09:00:40;13.05;;;10.38;;
64543;SDS011;50936;51.660;5.616;2023-05-07T09:03:08;16.05;;;10.88;;
64543;SDS011;50936;51.660;5.616;2023-05-07T09:05:40;16.25;;;10.82;;
64543;SDS011;50936;51.660;5.616;2023-05-07T09:08:07;16.65;;;11.68;;
64543;SDS011;50936;51.660;5.616;2023-05-07T09:10:36;14.90;;;10.40;;
64543;SDS011;50936;51.660;5.616;2023-05-07T09:13:04;17.10;;;12.57;;
64543;SDS011;50936;51.660;5.616;2023-05-07T09:15:31;16.58;;;12.00;;
64543;SDS011;50936;51.660;5.616;2023-05-07T09:17:59;16.92;;;12.05;;
64543;SDS011;50936;51.660;5.616;2023-05-07T09:20:32;19.95;;;12.43;;
64543;SDS011;50936;51.660;5.616;2023-05-07T09:23:01;16.33;;;11.85;;
64543;SDS011;50936;51.660;5.616;2023-05-07T09:25:29;16.70;;;10.93;;
64543;SDS011;50936;51.660;5.616;2023-05-07T09:28:04;15.27;;;11.68;;
64543;SDS011;50936;51.660;5.616;2023-05-07T09:30:34;14.52;;;11.13;;
64543;SDS011;50936;51.660;5.616;2023-05-07T09:33:04;17.23;;;12.50;;
64543;SDS011;50936;51.660;5.616;2023-05-07T09:35:35;16.77;;;12.32;;
64543;SDS011;50936;51.660;5.616;2023-05-07T09:38:07;18.33;;;12.88;;
64543;SDS011;50936;51.660;5.616;2023-05-07T09:40:35;16.42;;;13.32;;
64543;SDS011;50936;51.660;5.616;2023-05-07T09:43:10;15.90;;;12.00;;
64543;SDS011;50936;51.660;5.616;2023-05-07T09:45:50;16.30;;;11.15;;
64543;SDS011;50936;51.660;5.616;2023-05-07T09:48:20;16.38;;;11.95;;
64543;SDS011;50936;51.660;5.616;2023-05-07T09:50:51;16.45;;;12.13;;
64543;SDS011;50936;51.660;5.616;2023-05-07T09:53:28;18.02;;;12.15;;
64543;SDS011;50936;51.660;5.616;2023-05-07T09:55:59;17.52;;;12.60;;
64543;SDS011;50936;51.660;5.616;2023-05-07T09:58:31;17.45;;;13.45;;
64543;SDS011;50936;51.660;5.616;2023-05-07T10:01:03;15.38;;;12.48;;
64543;SDS011;50936;51.660;5.616;2023-05-07T10:03:33;14.98;;;10.90;;
64543;SDS011;50936;51.660;5.616;2023-05-07T10:06:04;13.98;;;10.30;;
64543;SDS011;50936;51.660;5.616;2023-05-07T10:08:32;23.92;;;12.07;;
64543;SDS011;50936;51.660;5.616;2023-05-07T10:11:03;14.60;;;11.68;;
64543;SDS011;50936;51.660;5.616;2023-05-07T10:13:32;14.95;;;11.43;;
64543;SDS011;50936;51.660;5.616;2023-05-07T10:16:05;16.42;;;11.90;;
64543;SDS011;50936;51.660;5.616;2023-05-07T10:18:40;17.45;;;12.38;;
64543;SDS011;50936;51.660;5.616;2023-05-07T10:27:03;16.52;;;12.02;;
64543;SDS011;50936;51.660;5.616;2023-05-07T10:32:47;17.10;;;12.73;;
64543;SDS011;50936;51.660;5.616;2023-05-07T10:35:27;16.02;;;12.30;;
64543;SDS011;50936;51.660;5.616;2023-05-07T10:38:01;17.70;;;12.27;;
64543;SDS011;50936;51.660;5.616;2023-05-07T10:40:31;18.13;;;12.63;;
64543;SDS011;50936;51.660;5.616;2023-05-07T10:43:01;18.73;;;12.10;;
64543;SDS011;50936;51.660;5.616;2023-05-07T10:51:30;15.55;;;11.07;;
64543;SDS011;50936;51.660;5.616;2023-05-07T10:56:51;14.40;;;10.88;;
64543;SDS011;50936;51.660;5.616;2023-05-07T11:02:05;15.23;;;11.13;;
64543;SDS011;50936;51.660;5.616;2023-05-07T11:05:18;14.75;;;11.10;;
64543;SDS011;50936;51.660;5.616;2023-05-07T11:07:56;14.20;;;10.52;;
64543;SDS011;50936;51.660;5.616;2023-05-07T11:10:52;14.35;;;11.07;;
64543;SDS011;50936;51.660;5.616;2023-05-07T11:13:48;16.83;;;11.20;;
64543;SDS011;50936;51.660;5.616;2023-05-07T11:16:30;15.95;;;9.75;;
64543;SDS011;50936;51.660;5.616;2023-05-07T11:19:08;14.10;;;9.65;;
64543;SDS011;50936;51.660;5.616;2023-05-07T11:21:41;12.73;;;10.15;;
64543;SDS011;50936;51.660;5.616;2023-05-07T11:24:44;13.95;;;9.50;;
64543;SDS011;50936;51.660;5.616;2023-05-07T11:27:13;16.00;;;11.02;;
64543;SDS011;50936;51.660;5.616;2023-05-07T11:29:41;13.68;;;10.95;;
64543;SDS011;50936;51.660;5.616;2023-05-07T11:32:14;14.75;;;9.98;;
64543;SDS011;50936;51.660;5.616;2023-05-07T11:34:50;14.20;;;9.15;;
64543;SDS011;50936;51.660;5.616;2023-05-07T11:37:22;14.48;;;10.15;;
64543;SDS011;50936;51.660;5.616;2023-05-07T11:40:05;11.90;;;8.10;;
64543;SDS011;50936;51.660;5.616;2023-05-07T11:42:36;12.98;;;8.25;;
64543;SDS011;50936;51.660;5.616;2023-05-07T11:45:05;7.90;;;5.40;;
64543;SDS011;50936;51.660;5.616;2023-05-07T11:47:35;10.02;;;5.93;;
64543;SDS011;50936;51.660;5.616;2023-05-07T11:50:03;9.38;;;6.00;;
64543;SDS011;50936;51.660;5.616;2023-05-07T11:52:34;9.77;;;6.90;;
64543;SDS011;50936;51.660;5.616;2023-05-07T11:55:02;11.15;;;7.25;;
64543;SDS011;50936;51.660;5.616;2023-05-07T11:57:32;12.13;;;7.80;;
64543;SDS011;50936;51.660;5.616;2023-05-07T12:00:15;11.23;;;7.82;;
64543;SDS011;50936;51.660;5.616;2023-05-07T12:02:44;15.85;;;11.30;;
64543;SDS011;50936;51.660;5.616;2023-05-07T12:05:12;12.98;;;8.32;;
64543;SDS011;50936;51.660;5.616;2023-05-07T12:07:39;12.68;;;7.82;;
64543;SDS011;50936;51.660;5.616;2023-05-07T12:10:07;12.13;;;7.20;;
64543;SDS011;50936;51.660;5.616;2023-05-07T12:12:38;11.57;;;7.60;;
64543;SDS011;50936;51.660;5.616;2023-05-07T12:15:08;11.57;;;6.95;;
64543;SDS011;50936;51.660;5.616;2023-05-07T12:17:36;11.57;;;6.78;;
64543;SDS011;50936;51.660;5.616;2023-05-07T12:20:04;10.07;;;7.00;;
64543;SDS011;50936;51.660;5.616;2023-05-07T12:22:34;10.57;;;7.60;;
64543;SDS011;50936;51.660;5.616;2023-05-07T12:25:02;12.30;;;7.05;;
64543;SDS011;50936;51.660;5.616;2023-05-07T12:27:29;8.80;;;6.03;;
64543;SDS011;50936;51.660;5.616;2023-05-07T12:29:57;11.50;;;6.80;;
64543;SDS011;50936;51.660;5.616;2023-05-07T12:32:25;11.88;;;6.57;;
64543;SDS011;50936;51.660;5.616;2023-05-07T12:34:52;11.57;;;6.75;;
64543;SDS011;50936;51.660;5.616;2023-05-07T12:37:25;10.82;;;5.47;;
64543;SDS011;50936;51.660;5.616;2023-05-07T12:40:06;10.95;;;6.55;;
64543;SDS011;50936;51.660;5.616;2023-05-07T12:42:38;14.45;;;7.50;;
64543;SDS011;50936;51.660;5.616;2023-05-07T12:45:07;10.82;;;5.82;;
64543;SDS011;50936;51.660;5.616;2023-05-07T12:47:43;7.95;;;5.28;;
64543;SDS011;50936;51.660;5.616;2023-05-07T12:50:13;8.52;;;6.00;;
64543;SDS011;50936;51.660;5.616;2023-05-07T12:52:45;10.60;;;7.05;;
64543;SDS011;50936;51.660;5.616;2023-05-07T12:55:14;11.65;;;6.13;;
64543;SDS011;50936;51.660;5.616;2023-05-07T12:57:43;11.15;;;6.40;;
64543;SDS011;50936;51.660;5.616;2023-05-07T13:00:15;11.55;;;6.43;;
64543;SDS011;50936;51.660;5.616;2023-05-07T13:02:43;10.18;;;6.43;;
64543;SDS011;50936;51.660;5.616;2023-05-07T13:05:11;9.05;;;5.80;;
64543;SDS011;50936;51.660;5.616;2023-05-07T13:07:39;7.93;;;5.60;;
64543;SDS011;50936;51.660;5.616;2023-05-07T13:10:07;10.45;;;5.28;;
64543;SDS011;50936;51.660;5.616;2023-05-07T13:12:35;11.18;;;5.15;;
64543;SDS011;50936;51.660;5.616;2023-05-07T13:15:02;8.02;;;5.40;;
64543;SDS011;50936;51.660;5.616;2023-05-07T13:17:29;9.48;;;5.28;;
64543;SDS011;50936;51.660;5.616;2023-05-07T13:19:57;8.35;;;5.03;;
64543;SDS011;50936;51.660;5.616;2023-05-07T13:22:24;10.23;;;5.35;;
64543;SDS011;50936;51.660;5.616;2023-05-07T13:24:52;10.05;;;6.20;;
64543;SDS011;50936;51.660;5.616;2023-05-07T13:27:18;9.93;;;5.68;;
64543;SDS011;50936;51.660;5.616;2023-05-07T13:29:46;7.95;;;5.70;;
64543;SDS011;50936;51.660;5.616;2023-05-07T13:32:13;11.40;;;7.25;;
64543;SDS011;50936;51.660;5.616;2023-05-07T13:34:41;4.60;;;3.10;;
64543;SDS011;50936;51.660;5.616;2023-05-07T13:37:07;5.03;;;2.60;;
64543;SDS011;50936;51.660;5.616;2023-05-07T13:39:36;4.22;;;1.58;;
64543;SDS011;50936;51.660;5.616;2023-05-07T13:42:03;2.35;;;1.60;;
64543;SDS011;50936;51.660;5.616;2023-05-07T13:44:30;2.50;;;1.55;;
64543;SDS011;50936;51.660;5.616;2023-05-07T13:46:57;2.83;;;1.58;;
64543;SDS011;50936;51.660;5.616;2023-05-07T13:49:24;2.85;;;1.20;;
64543;SDS011;50936;51.660;5.616;2023-05-07T13:51:51;2.33;;;1.50;;
64543;SDS011;50936;51.660;5.616;2023-05-07T13:54:18;2.15;;;1.30;;
64543;SDS011;50936;51.660;5.616;2023-05-07T13:56:45;1.98;;;1.50;;
64543;SDS011;50936;51.660;5.616;2023-05-07T13:59:11;3.90;;;1.83;;
64543;SDS011;50936;51.660;5.616;2023-05-07T14:01:40;3.55;;;1.58;;
64543;SDS011;50936;51.660;5.616;2023-05-07T14:04:07;3.67;;;1.50;;
64543;SDS011;50936;51.660;5.616;2023-05-07T14:06:34;3.55;;;1.90;;
64543;SDS011;50936;51.660;5.616;2023-05-07T14:09:01;6.57;;;2.25;;
64543;SDS011;50936;51.660;5.616;2023-05-07T14:11:31;4.75;;;2.10;;
64543;SDS011;50936;51.660;5.616;2023-05-07T14:14:00;4.65;;;2.40;;
64543;SDS011;50936;51.660;5.616;2023-05-07T14:16:26;4.75;;;2.08;;
64543;SDS011;50936;51.660;5.616;2023-05-07T14:18:53;7.20;;;3.05;;
64543;SDS011;50936;51.660;5.616;2023-05-07T14:21:23;5.32;;;3.97;;
64543;SDS011;50936;51.660;5.616;2023-05-07T14:23:50;7.28;;;3.60;;
64543;SDS011;50936;51.660;5.616;2023-05-07T14:26:17;7.15;;;4.45;;
64543;SDS011;50936;51.660;5.616;2023-05-07T14:28:44;10.77;;;4.50;;
64543;SDS011;50936;51.660;5.616;2023-05-07T14:31:12;7.47;;;3.85;;
64543;SDS011;50936;51.660;5.616;2023-05-07T14:33:39;10.07;;;5.40;;
64543;SDS011;50936;51.660;5.616;2023-05-07T14:36:07;9.23;;;5.30;;
64543;SDS011;50936;51.660;5.616;2023-05-07T14:38:34;8.63;;;5.22;;
64543;SDS011;50936;51.660;5.616;2023-05-07T14:41:01;12.57;;;6.28;;
64543;SDS011;50936;51.660;5.616;2023-05-07T14:43:28;9.05;;;5.35;;
64543;SDS011;50936;51.660;5.616;2023-05-07T14:45:55;8.43;;;6.22;;
64543;SDS011;50936;51.660;5.616;2023-05-07T14:48:22;12.30;;;6.53;;
64543;SDS011;50936;51.660;5.616;2023-05-07T14:50:49;16.27;;;6.57;;
64543;SDS011;50936;51.660;5.616;2023-05-07T14:53:15;17.63;;;8.73;;
64543;SDS011;50936;51.660;5.616;2023-05-07T14:55:42;20.55;;;8.52;;
64543;SDS011;50936;51.660;5.616;2023-05-07T14:58:10;14.80;;;8.05;;
64543;SDS011;50936;51.660;5.616;2023-05-07T15:00:37;14.15;;;7.40;;
64543;SDS011;50936;51.660;5.616;2023-05-07T15:03:07;12.90;;;8.60;;